createdAt,value
2022-10-26T00:00:54.402Z,1.50
2022-10-26T00:03:21.935Z,1.70
2022-10-26T00:05:49.495Z,1.17
2022-10-26T00:08:17.575Z,1.77
2022-10-26T00:10:45.114Z,1.60
2022-10-26T00:13:13.546Z,1.37
2022-10-26T00:15:43.141Z,1.30
2022-10-26T00:18:11.153Z,1.30
2022-10-26T00:20:38.660Z,1.00
2022-10-26T00:23:06.189Z,1.40
2022-10-26T00:25:33.722Z,1.30
2022-10-26T00:28:01.317Z,1.47
2022-10-26T00:30:28.862Z,1.30
2022-10-26T00:32:57.731Z,1.83
2022-10-26T00:35:44.654Z,1.23
2022-10-26T00:38:12.939Z,1.63
2022-10-26T00:40:40.480Z,1.50
2022-10-26T00:43:14.633Z,0.80
2022-10-26T00:45:42.149Z,0.93
2022-10-26T00:48:15.338Z,1.47
2022-10-26T00:50:44.493Z,1.30
2022-10-26T00:53:12.446Z,1.40
2022-10-26T00:55:43.368Z,1.20
2022-10-26T00:58:11.492Z,1.00
2022-10-26T01:00:40.359Z,1.20
2022-10-26T01:03:09.034Z,1.30
2022-10-26T01:05:39.941Z,1.53
2022-10-26T01:08:08.024Z,2.00
2022-10-26T01:10:35.931Z,1.40
2022-10-26T01:13:04.059Z,1.27
2022-10-26T01:15:36.505Z,1.60
2022-10-26T01:18:11.014Z,1.70
2022-10-26T01:21:03.163Z,0.90
2022-10-26T01:23:35.019Z,1.20
2022-10-26T01:26:34.290Z,1.37
2022-10-26T01:29:15.903Z,1.90
2022-10-26T01:31:49.768Z,1.10
2022-10-26T01:34:23.129Z,1.50
2022-10-26T01:36:54.373Z,1.40
2022-10-26T01:39:26.289Z,1.63
2022-10-26T01:41:57.382Z,1.70
2022-10-26T01:44:28.551Z,1.50
2022-10-26T01:46:59.778Z,1.17
2022-10-26T01:49:29.620Z,1.70
2022-10-26T01:51:57.136Z,1.43
2022-10-26T01:54:24.700Z,1.10
2022-10-26T01:56:56.487Z,1.87
2022-10-26T01:59:31.199Z,1.10
2022-10-26T02:02:19.353Z,1.00
2022-10-26T02:05:01.475Z,1.77
2022-10-26T02:07:34.674Z,1.50
2022-10-26T02:10:08.920Z,1.70
2022-10-26T02:12:40.521Z,1.70
2022-10-26T02:15:10.748Z,1.50
2022-10-26T02:17:45.740Z,2.50
2022-10-26T02:20:18.838Z,1.87
2022-10-26T02:22:49.029Z,1.60
2022-10-26T02:25:19.162Z,1.43
2022-10-26T02:27:50.672Z,1.83
2022-10-26T02:30:18.734Z,1.40
2022-10-26T02:32:49.895Z,1.73
2022-10-26T02:35:18.623Z,1.50
2022-10-26T02:37:47.911Z,2.50
2022-10-26T02:40:18.600Z,1.83
2022-10-26T02:42:46.930Z,1.97
2022-10-26T02:45:18.011Z,2.70
2022-10-26T02:47:47.126Z,1.70
2022-10-26T02:50:15.125Z,1.40
2022-10-26T02:52:48.199Z,1.73
2022-10-26T02:55:19.221Z,2.13
2022-10-26T02:57:48.972Z,2.10
2022-10-26T03:00:18.347Z,1.97
2022-10-26T03:02:53.248Z,1.93
2022-10-26T03:05:22.985Z,1.37
2022-10-26T03:07:50.496Z,1.40
2022-10-26T03:10:18.316Z,2.00
2022-10-26T03:12:45.980Z,1.93
2022-10-26T03:15:13.658Z,1.20
2022-10-26T03:17:41.224Z,1.80
2022-10-26T03:20:11.743Z,1.87
2022-10-26T03:22:39.305Z,2.00
2022-10-26T03:27:36.246Z,2.60
2022-10-26T03:30:03.790Z,1.40
2022-10-26T03:32:32.952Z,1.73
2022-10-26T03:35:00.617Z,1.73
2022-10-26T03:37:29.466Z,1.60
2022-10-26T03:39:57.011Z,1.70
2022-10-26T03:42:26.275Z,2.03
2022-10-26T03:44:53.762Z,1.63
2022-10-26T03:47:21.252Z,2.20
2022-10-26T03:49:48.763Z,1.80
2022-10-26T03:52:16.279Z,1.70
2022-10-26T03:54:45.163Z,2.20
2022-10-26T03:57:12.645Z,2.30
2022-10-26T03:59:40.209Z,1.90
2022-10-26T04:02:07.913Z,1.60
2022-10-26T04:04:37.759Z,1.63
2022-10-26T04:07:05.332Z,1.40
2022-10-26T04:09:32.851Z,1.80
2022-10-26T04:12:01.770Z,2.20
2022-10-26T04:14:29.299Z,2.33
2022-10-26T04:16:56.858Z,1.70
2022-10-26T04:19:24.479Z,1.60
2022-10-26T04:21:52.185Z,1.80
2022-10-26T04:24:19.712Z,2.03
2022-10-26T04:26:47.207Z,1.53
2022-10-26T04:29:16.268Z,1.67
2022-10-26T04:34:16.247Z,1.30
2022-10-26T04:36:43.773Z,2.00
2022-10-26T04:39:11.303Z,1.73
2022-10-26T04:41:38.867Z,1.30
2022-10-26T04:44:06.559Z,1.50
2022-10-26T04:46:35.463Z,1.73
2022-10-26T04:49:02.993Z,1.30
2022-10-26T04:51:30.502Z,2.10
2022-10-26T04:53:58.187Z,1.77
2022-10-26T04:56:25.757Z,2.07
2022-10-26T04:58:54.737Z,1.40
2022-10-26T05:01:22.882Z,1.57
2022-10-26T05:03:52.955Z,1.13
2022-10-26T05:06:22.287Z,1.20
2022-10-26T05:08:49.855Z,2.00
2022-10-26T05:11:17.676Z,1.67
2022-10-26T05:13:45.234Z,1.40
2022-10-26T05:16:12.760Z,1.60
2022-10-26T05:18:40.284Z,1.17
2022-10-26T05:21:09.253Z,1.90
2022-10-26T05:23:36.847Z,1.50
2022-10-26T05:26:04.631Z,1.73
2022-10-26T05:28:32.212Z,1.60
2022-10-26T05:30:59.782Z,1.60
2022-10-26T05:33:27.305Z,1.50
2022-10-26T05:35:55.473Z,1.50
2022-10-26T05:38:24.390Z,1.73
2022-10-26T05:40:53.508Z,1.60
2022-10-26T05:43:23.053Z,1.40
2022-10-26T05:45:50.851Z,1.53
2022-10-26T05:48:18.631Z,1.93
2022-10-26T05:50:46.633Z,1.17
2022-10-26T05:53:14.430Z,1.40
2022-10-26T05:55:44.435Z,1.90
2022-10-26T05:58:13.090Z,1.43
2022-10-26T06:00:47.555Z,1.10
2022-10-26T06:03:23.552Z,1.57
2022-10-26T06:05:53.977Z,1.40
2022-10-26T06:08:22.670Z,1.90
2022-10-26T06:10:52.496Z,1.43
2022-10-26T06:13:20.568Z,1.40
2022-10-26T06:15:58.964Z,1.63
2022-10-26T06:18:36.899Z,1.57
2022-10-26T06:21:15.873Z,2.20
2022-10-26T06:23:49.582Z,1.67
2022-10-26T06:26:28.943Z,1.87
2022-10-26T06:29:04.551Z,1.57
2022-10-26T06:31:32.168Z,1.53
2022-10-26T06:34:00.895Z,1.50
2022-10-26T06:36:29.899Z,1.83
2022-10-26T06:39:01.699Z,1.30
2022-10-26T06:41:32.506Z,1.30
2022-10-26T06:44:00.691Z,1.30
2022-10-26T06:46:36.953Z,1.50
2022-10-26T06:49:12.615Z,1.43
2022-10-26T06:51:46.702Z,1.20
2022-10-26T06:54:19.300Z,2.37
2022-10-26T06:56:48.502Z,1.60
2022-10-26T06:59:19.602Z,1.43
2022-10-26T07:01:47.299Z,1.50
2022-10-26T07:04:14.881Z,1.83
2022-10-26T07:06:42.911Z,2.43
2022-10-26T07:09:10.478Z,1.40
2022-10-26T07:11:38.004Z,1.70
2022-10-26T07:14:06.899Z,1.87
2022-10-26T07:16:34.465Z,2.43
2022-10-26T07:19:02.032Z,1.73
2022-10-26T07:21:29.527Z,1.20
2022-10-26T07:23:57.088Z,1.57
2022-10-26T07:26:25.644Z,1.97
2022-10-26T07:28:53.186Z,1.70
2022-10-26T07:31:22.424Z,1.50
2022-10-26T07:33:49.973Z,1.87
2022-10-26T07:36:19.186Z,1.67
2022-10-26T07:38:46.745Z,2.17
2022-10-26T07:41:14.314Z,6.60
2022-10-26T07:43:41.864Z,2.43
2022-10-26T07:46:09.407Z,2.03
2022-10-26T07:48:38.580Z,3.67
2022-10-26T07:51:06.209Z,2.63
2022-10-26T07:53:33.762Z,2.67
2022-10-26T07:56:01.291Z,2.80
2022-10-26T07:58:28.912Z,3.50
2022-10-26T08:00:56.884Z,2.93
2022-10-26T08:03:24.863Z,2.90
2022-10-26T08:05:56.006Z,2.80
2022-10-26T08:08:23.800Z,2.70
2022-10-26T08:10:52.506Z,2.67
2022-10-26T08:13:20.091Z,4.00
2022-10-26T08:15:48.133Z,3.80
2022-10-26T08:18:15.964Z,3.50
2022-10-26T08:20:43.563Z,3.30
2022-10-26T08:23:12.482Z,4.27
2022-10-26T08:25:40.072Z,3.97
2022-10-26T08:28:07.655Z,3.10
2022-10-26T08:33:09.083Z,3.33
2022-10-26T08:35:36.647Z,3.67
2022-10-26T08:38:04.254Z,3.87
2022-10-26T08:40:34.385Z,4.70
2022-10-26T08:43:08.925Z,4.00
2022-10-26T08:45:39.117Z,4.50
2022-10-26T08:48:08.403Z,4.30
2022-10-26T08:50:42.078Z,5.27
2022-10-26T08:53:16.654Z,4.90
2022-10-26T08:55:48.808Z,4.93
2022-10-26T08:58:17.724Z,4.83
2022-10-26T09:00:46.315Z,4.83
2022-10-26T09:03:20.028Z,4.50
2022-10-26T09:05:55.928Z,4.07
2022-10-26T09:08:32.175Z,3.87
2022-10-26T09:11:09.008Z,4.10
2022-10-26T09:13:47.609Z,3.87
2022-10-26T09:16:24.029Z,4.10
2022-10-26T09:19:02.863Z,3.40
2022-10-26T09:21:39.510Z,3.20
2022-10-26T09:24:10.265Z,3.57
2022-10-26T09:26:45.373Z,4.80
2022-10-26T09:29:14.894Z,4.00
2022-10-26T09:31:44.182Z,4.23
2022-10-26T09:34:19.839Z,3.07
2022-10-26T09:36:47.363Z,3.07
2022-10-26T09:39:22.166Z,3.00
2022-10-26T09:41:57.258Z,3.33
2022-10-26T09:44:27.207Z,3.30
2022-10-26T09:46:58.675Z,3.60
2022-10-26T09:49:32.944Z,3.50
2022-10-26T09:52:02.573Z,3.30
2022-10-26T09:54:30.635Z,4.00
2022-10-26T09:57:02.047Z,3.10
2022-10-26T09:59:31.491Z,2.90
2022-10-26T10:01:59.100Z,3.50
2022-10-26T10:04:26.750Z,3.27
2022-10-26T10:07:13.272Z,4.50
2022-10-26T10:09:40.865Z,2.70
2022-10-26T10:12:19.709Z,3.67
2022-10-26T10:14:57.312Z,4.60
2022-10-26T10:17:26.503Z,3.53
2022-10-26T10:19:57.223Z,3.37
2022-10-26T10:22:26.578Z,3.63
2022-10-26T10:24:56.139Z,3.40
2022-10-26T10:27:25.359Z,3.07
2022-10-26T10:29:59.699Z,3.30
2022-10-26T10:32:35.596Z,3.10
2022-10-26T10:35:23.911Z,2.63
2022-10-26T10:37:51.997Z,3.40
2022-10-26T10:40:21.787Z,3.40
2022-10-26T10:42:52.104Z,2.87
2022-10-26T10:45:23.555Z,3.10
2022-10-26T10:48:00.002Z,2.63
2022-10-26T10:50:30.457Z,3.80
2022-10-26T10:53:18.264Z,3.20
2022-10-26T10:55:56.780Z,2.80
2022-10-26T10:58:30.828Z,2.30
2022-10-26T11:01:01.110Z,4.20
2022-10-26T11:03:41.539Z,2.70
2022-10-26T11:06:15.453Z,2.87
2022-10-26T11:08:47.540Z,2.43
2022-10-26T11:11:19.012Z,2.60
2022-10-26T11:13:52.869Z,2.53
2022-10-26T11:16:23.599Z,3.90
2022-10-26T11:18:55.662Z,2.27
2022-10-26T11:21:28.298Z,2.50
2022-10-26T11:24:06.895Z,2.23
2022-10-26T11:26:36.677Z,2.97
2022-10-26T11:29:12.576Z,3.20
2022-10-26T11:31:44.627Z,3.17
2022-10-26T11:34:19.088Z,3.27
2022-10-26T11:36:49.629Z,2.60
2022-10-26T11:39:23.452Z,2.60
2022-10-26T11:41:52.537Z,2.47
2022-10-26T11:44:24.711Z,3.03
2022-10-26T11:46:55.781Z,3.40
2022-10-26T11:49:30.976Z,2.77
2022-10-26T11:52:03.341Z,2.50
2022-10-26T11:54:34.841Z,2.50
2022-10-26T11:57:04.544Z,2.73
2022-10-26T11:59:36.780Z,2.17
2022-10-26T12:02:07.151Z,2.40
2022-10-26T12:04:37.078Z,2.20
2022-10-26T12:07:09.150Z,2.30
2022-10-26T12:09:40.021Z,1.60
2022-10-26T12:12:10.813Z,1.77
2022-10-26T12:14:44.106Z,2.40
2022-10-26T12:17:15.832Z,2.20
2022-10-26T12:19:47.056Z,2.10
2022-10-26T12:22:15.933Z,2.50
2022-10-26T12:24:45.303Z,2.27
2022-10-26T12:27:31.047Z,1.90
2022-10-26T12:30:27.986Z,2.30
2022-10-26T12:32:56.668Z,2.83
2022-10-26T12:35:40.390Z,2.77
2022-10-26T12:38:43.660Z,2.20
2022-10-26T12:41:28.647Z,4.03
2022-10-26T12:43:58.082Z,5.20
2022-10-26T12:46:45.473Z,2.43
2022-10-26T12:49:56.950Z,1.87
2022-10-26T12:52:32.961Z,2.03
2022-10-26T12:55:31.680Z,2.23
2022-10-26T12:58:09.875Z,2.07
2022-10-26T13:00:40.797Z,2.17
2022-10-26T13:03:18.901Z,3.73
2022-10-26T13:06:07.396Z,1.70
2022-10-26T13:08:40.354Z,1.63
2022-10-26T13:11:15.104Z,2.03
2022-10-26T13:13:43.024Z,1.83
2022-10-26T13:16:12.323Z,2.53
2022-10-26T13:18:48.796Z,1.90
2022-10-26T13:21:17.798Z,8.20
2022-10-26T13:23:46.955Z,2.40
2022-10-26T13:26:16.072Z,2.20
2022-10-26T13:28:47.350Z,4.23
2022-10-26T13:31:39.462Z,2.47
2022-10-26T13:36:46.745Z,2.17
2022-10-26T13:39:18.204Z,1.90
2022-10-26T13:41:47.804Z,2.60
2022-10-26T13:44:21.354Z,2.53
2022-10-26T13:46:54.598Z,2.20
2022-10-26T13:49:26.466Z,1.70
2022-10-26T13:51:56.526Z,2.87
2022-10-26T13:54:28.225Z,2.10
2022-10-26T13:57:05.208Z,2.00
2022-10-26T13:59:34.295Z,2.10
2022-10-26T14:02:09.453Z,1.83
2022-10-26T14:04:38.390Z,1.93
2022-10-26T14:07:06.441Z,1.77
2022-10-26T14:09:33.993Z,1.70
2022-10-26T14:12:01.948Z,1.90
2022-10-26T14:14:31.523Z,1.53
2022-10-26T14:16:59.730Z,1.63
2022-10-26T14:19:29.280Z,1.70
2022-10-26T14:21:58.935Z,2.00
2022-10-26T14:24:45.816Z,1.97
2022-10-26T14:27:16.425Z,1.70
2022-10-26T14:29:49.809Z,1.63
2022-10-26T14:32:29.435Z,1.90
2022-10-26T14:34:57.105Z,1.50
2022-10-26T14:37:37.688Z,1.93
2022-10-26T14:40:07.825Z,1.93
2022-10-26T14:42:37.279Z,3.07
2022-10-26T14:45:05.285Z,2.57
2022-10-26T14:47:33.845Z,2.27
2022-10-26T14:50:02.635Z,2.43
2022-10-26T14:52:33.998Z,2.00
2022-10-26T14:55:02.944Z,2.20
2022-10-26T14:57:32.558Z,2.10
2022-10-26T15:00:11.952Z,2.60
2022-10-26T15:02:40.030Z,2.00
2022-10-26T15:05:20.000Z,1.83
2022-10-26T15:07:49.152Z,2.20
2022-10-26T15:10:48.074Z,2.20
2022-10-26T15:13:22.001Z,1.77
2022-10-26T15:15:50.492Z,2.80
2022-10-26T15:18:23.041Z,2.57
2022-10-26T15:20:52.099Z,2.60
2022-10-26T15:23:22.055Z,2.30
2022-10-26T15:25:54.804Z,3.70
2022-10-26T15:28:23.739Z,2.40
2022-10-26T15:31:05.066Z,2.50
2022-10-26T15:33:33.139Z,2.43
2022-10-26T15:36:21.739Z,3.27
2022-10-26T15:38:51.640Z,3.50
2022-10-26T15:41:22.066Z,2.37
2022-10-26T15:43:52.131Z,2.03
2022-10-26T15:46:19.742Z,2.90
2022-10-26T15:51:21.589Z,2.90
2022-10-26T15:53:50.810Z,3.30
2022-10-26T15:56:20.438Z,2.40
2022-10-26T15:58:48.356Z,2.53
2022-10-26T16:01:17.854Z,2.10
2022-10-26T16:03:45.638Z,2.10
2022-10-26T16:06:17.566Z,2.83
2022-10-26T16:08:47.146Z,2.70
2022-10-26T16:11:16.002Z,2.03
2022-10-26T16:13:43.598Z,3.50
2022-10-26T16:16:13.252Z,2.63
2022-10-26T16:18:40.823Z,3.83
2022-10-26T16:21:12.500Z,3.50
2022-10-26T16:23:40.073Z,2.97
2022-10-26T16:26:08.047Z,2.93
2022-10-26T16:28:37.250Z,2.70
2022-10-26T16:31:06.770Z,3.80
2022-10-26T16:33:34.940Z,2.83
2022-10-26T16:36:07.822Z,2.40
2022-10-26T16:38:35.667Z,2.53
2022-10-26T16:41:03.843Z,2.20
2022-10-26T16:43:32.528Z,2.53
2022-10-26T16:46:02.435Z,2.17
2022-10-26T16:48:29.999Z,2.17
2022-10-26T16:50:57.524Z,1.87
2022-10-26T16:53:25.124Z,2.50
2022-10-26T16:55:52.644Z,1.77
2022-10-26T16:58:20.170Z,2.03
2022-10-26T17:00:47.683Z,2.00
2022-10-26T17:03:16.543Z,2.20
2022-10-26T17:05:46.146Z,2.80
2022-10-26T17:08:13.812Z,2.73
2022-10-26T17:10:41.326Z,1.87
2022-10-26T17:13:08.832Z,2.20
2022-10-26T17:15:36.335Z,1.90
2022-10-26T17:18:03.898Z,2.80
2022-10-26T17:20:32.817Z,1.97
2022-10-26T17:23:00.349Z,1.80
2022-10-26T17:25:27.873Z,2.27
2022-10-26T17:27:55.455Z,1.93
2022-10-26T17:30:23.079Z,1.70
2022-10-26T17:32:50.865Z,2.03
2022-10-26T17:35:19.894Z,2.00
2022-10-26T17:37:49.042Z,2.40
2022-10-26T17:40:16.995Z,2.53
2022-10-26T17:42:44.567Z,2.70
2022-10-26T17:45:12.393Z,1.70
2022-10-26T17:47:39.894Z,1.97
2022-10-26T17:50:08.373Z,2.57
2022-10-26T17:52:36.056Z,2.50
2022-10-26T17:55:05.444Z,2.00
2022-10-26T17:57:33.070Z,1.90
2022-10-26T18:00:00.695Z,3.27
2022-10-26T18:02:28.449Z,1.90
2022-10-26T18:04:56.179Z,2.23
2022-10-26T18:07:23.680Z,3.33
2022-10-26T18:09:51.168Z,3.10
2022-10-26T18:12:20.067Z,2.53
2022-10-26T18:14:47.878Z,1.90
2022-10-26T18:17:15.424Z,1.57
2022-10-26T18:19:43.257Z,2.27
2022-10-26T18:22:10.788Z,2.60
2022-10-26T18:24:38.348Z,2.23
2022-10-26T18:27:05.916Z,1.87
2022-10-26T18:29:37.451Z,1.80
2022-10-26T18:32:07.300Z,2.10
2022-10-26T18:34:34.885Z,1.73
2022-10-26T18:37:02.408Z,2.03
2022-10-26T18:39:29.931Z,1.90
2022-10-26T18:41:57.510Z,1.60
2022-10-26T18:44:25.065Z,2.10
2022-10-26T18:46:54.014Z,1.73
2022-10-26T18:49:22.068Z,1.57
2022-10-26T18:51:49.826Z,1.80
2022-10-26T18:54:17.436Z,2.80
2022-10-26T18:56:45.018Z,2.03
2022-10-26T18:59:12.975Z,2.43
2022-10-26T19:01:42.070Z,1.57
2022-10-26T19:04:11.563Z,1.67
2022-10-26T19:06:43.230Z,1.43
2022-10-26T19:09:11.100Z,1.80
2022-10-26T19:11:39.470Z,2.10
2022-10-26T19:14:07.999Z,3.83
2022-10-26T19:16:51.381Z,2.10
2022-10-26T19:19:21.246Z,2.10
2022-10-26T19:21:50.239Z,1.77
2022-10-26T19:24:19.778Z,1.33
2022-10-26T19:26:48.760Z,1.77
2022-10-26T19:29:19.791Z,1.70
2022-10-26T19:31:48.368Z,1.30
2022-10-26T19:34:16.953Z,1.60
2022-10-26T19:36:47.077Z,2.47
2022-10-26T19:39:15.825Z,1.80
2022-10-26T19:41:44.025Z,1.43
2022-10-26T19:44:12.425Z,1.40
2022-10-26T19:46:40.199Z,1.37
2022-10-26T19:49:07.920Z,2.47
2022-10-26T19:51:41.792Z,2.23
2022-10-26T19:54:10.724Z,1.40
2022-10-26T19:56:38.722Z,3.30
2022-10-26T19:59:07.996Z,1.87
2022-10-26T20:01:36.744Z,1.70
2022-10-26T20:04:05.919Z,1.20
2022-10-26T20:06:33.459Z,1.83
2022-10-26T20:09:02.222Z,1.30
2022-10-26T20:11:32.184Z,1.17
2022-10-26T20:14:01.239Z,1.30
2022-10-26T20:16:28.900Z,2.80
2022-10-26T20:18:56.480Z,1.50
2022-10-26T20:21:24.004Z,1.73
2022-10-26T20:23:51.756Z,1.63
2022-10-26T20:26:20.067Z,1.87
2022-10-26T20:28:51.162Z,1.70
2022-10-26T20:31:19.871Z,1.20
2022-10-26T20:33:50.737Z,1.47
2022-10-26T20:36:20.239Z,1.20
2022-10-26T20:38:48.282Z,2.30
2022-10-26T20:41:16.420Z,1.73
2022-10-26T20:43:44.537Z,1.83
2022-10-26T20:46:20.224Z,1.20
2022-10-26T20:48:51.375Z,2.60
2022-10-26T20:51:23.818Z,1.50
2022-10-26T20:53:59.449Z,1.53
2022-10-26T20:56:27.673Z,2.10
2022-10-26T20:58:57.235Z,1.87
2022-10-26T21:01:28.388Z,1.47
2022-10-26T21:03:57.550Z,1.37
2022-10-26T21:06:28.854Z,1.60
2022-10-26T21:08:58.008Z,1.30
2022-10-26T21:11:26.441Z,1.70
2022-10-26T21:13:55.026Z,1.30
2022-10-26T21:18:56.423Z,1.10
2022-10-26T21:21:23.968Z,0.83
2022-10-26T21:23:51.535Z,1.27
2022-10-26T21:26:19.135Z,1.20
2022-10-26T21:28:48.935Z,1.47
2022-10-26T21:31:18.374Z,1.13
2022-10-26T21:33:47.079Z,3.13
2022-10-26T21:36:16.719Z,1.13
2022-10-26T21:38:45.184Z,1.70
2022-10-26T21:41:13.849Z,1.33
2022-10-26T21:43:42.593Z,1.00
2022-10-26T21:46:10.791Z,1.00
2022-10-26T21:48:41.327Z,1.50
2022-10-26T21:51:12.184Z,1.10
2022-10-26T21:53:41.126Z,1.60
2022-10-26T21:56:10.480Z,1.00
2022-10-26T21:58:38.205Z,1.10
2022-10-26T22:01:07.281Z,1.30
2022-10-26T22:03:35.241Z,1.17
2022-10-26T22:06:03.069Z,1.40
2022-10-26T22:08:31.206Z,1.30
2022-10-26T22:11:00.330Z,1.23
2022-10-26T22:13:27.863Z,1.50
2022-10-26T22:16:03.329Z,1.10
2022-10-26T22:18:33.582Z,1.33
2022-10-26T22:21:01.193Z,1.53
2022-10-26T22:23:28.724Z,1.00
2022-10-26T22:25:56.290Z,0.90
2022-10-26T22:28:25.126Z,1.07
2022-10-26T22:30:52.633Z,1.03
2022-10-26T22:33:20.130Z,1.10
2022-10-26T22:35:47.658Z,0.90
2022-10-26T22:38:15.147Z,1.87
2022-10-26T22:40:42.646Z,1.63
2022-10-26T22:43:10.151Z,1.40
2022-10-26T22:45:38.983Z,1.57
2022-10-26T22:50:39.258Z,1.30
2022-10-26T22:53:07.271Z,1.00
2022-10-26T22:55:34.769Z,2.20
2022-10-26T22:58:02.300Z,1.57
2022-10-26T23:00:29.798Z,1.17
2022-10-26T23:02:58.682Z,1.63
2022-10-26T23:05:26.201Z,0.80
2022-10-26T23:07:53.958Z,1.43
2022-10-26T23:10:21.598Z,1.10
2022-10-26T23:12:50.069Z,1.10
2022-10-26T23:15:17.901Z,1.20
2022-10-26T23:17:45.379Z,1.30
2022-10-26T23:20:14.342Z,1.40
2022-10-26T23:22:41.891Z,1.43
2022-10-26T23:25:09.986Z,2.87
2022-10-26T23:27:37.498Z,1.13
2022-10-26T23:30:05.595Z,1.30
2022-10-26T23:32:33.113Z,0.97
2022-10-26T23:35:00.656Z,0.93
2022-10-26T23:37:29.501Z,1.27
2022-10-26T23:39:57.043Z,1.40
2022-10-26T23:42:27.584Z,1.17
2022-10-26T23:44:55.091Z,1.07
2022-10-26T23:47:22.643Z,1.03
2022-10-26T23:49:50.155Z,1.10
2022-10-26T23:52:17.706Z,1.00
2022-10-26T23:54:46.619Z,2.27
2022-10-26T23:57:14.142Z,1.20
2022-10-26T23:59:41.715Z,1.07
